Time;durP1;ratioP1;P1;durP2;ratioP2;P2;SDS_P1;SDS_P2;PMS_P1;PMS_P2;Temp;Humidity;BMP_temperature;BMP_pressure;BME280_temperature;BME280_humidity;BME280_pressure;Samples;Min_cycle;Max_cycle;Signal;HPM_P1;HPM_P2
2024/03/28 00:02:20;;;;;;;18.30;12.40;;;;;;;6.36;87.31;99443.25;79243;1297;3013269;-61
2024/03/28 00:04:46;;;;;;;16.20;9.60;;;;;;;6.25;87.86;99439.04;79248;1301;3013757;-64
2024/03/28 00:07:14;;;;;;;17.90;9.30;;;;;;;6.58;87.12;99442.10;77916;1301;3024676;-63
2024/03/28 00:09:41;;;;;;;14.10;9.20;;;;;;;7.06;85.06;99441.68;79183;1301;3013515;-64
2024/03/28 00:12:07;;;;;;;14.80;9.50;;;;;;;7.07;83.94;99442.19;79299;1301;3012650;-62
2024/03/28 00:14:36;;;;;;;15.60;10.30;;;;;;;6.85;84.59;99438.48;77986;1298;3026311;-59
2024/03/28 00:17:02;;;;;;;16.40;10.20;;;;;;;6.72;85.10;99443.39;79246;1298;3018966;-64
2024/03/28 00:19:30;;;;;;;16.60;10.40;;;;;;;6.52;86.04;99438.89;79234;1303;3011930;-60
2024/03/28 00:21:58;;;;;;;18.50;11.10;;;;;;;6.34;86.87;99431.17;78015;1301;3054464;-62
2024/03/28 00:24:24;;;;;;;14.70;9.90;;;;;;;6.24;87.91;99428.14;79172;1301;3013071;-61
2024/03/28 00:26:52;;;;;;;17.80;9.30;;;;;;;6.21;88.61;99428.77;79380;1301;3013618;-61
2024/03/28 00:29:20;;;;;;;15.30;9.70;;;;;;;6.64;87.53;99434.00;78061;1301;3028952;-60
2024/03/28 00:31:46;;;;;;;17.10;9.10;;;;;;;6.96;85.52;99433.28;79175;1298;3013538;-63
2024/03/28 00:34:12;;;;;;;16.30;10.00;;;;;;;7.10;84.42;99431.55;79305;1300;3011400;-60
2024/03/28 00:36:40;;;;;;;15.70;10.60;;;;;;;6.92;84.56;99427.52;77989;1301;3026071;-61
2024/03/28 00:39:09;;;;;;;17.30;10.70;;;;;;;6.73;85.53;99428.55;79367;1297;3013508;-61
2024/03/28 00:41:35;;;;;;;12.80;10.00;;;;;;;6.59;86.18;99425.20;79262;1298;3011587;-62
2024/03/28 00:44:04;;;;;;;16.60;9.90;;;;;;;6.55;86.81;99425.02;77878;1301;3048754;-59
2024/03/28 00:46:30;;;;;;;16.20;10.50;;;;;;;6.44;87.73;99425.16;79267;1297;3014908;-63
2024/03/28 00:48:57;;;;;;;13.00;8.30;;;;;;;6.42;87.95;99422.65;79095;1298;3013803;-63
2024/03/28 00:51:24;;;;;;;11.70;7.70;;;;;;;6.92;86.68;99424.38;77880;1300;3051848;-62
2024/03/28 00:53:51;;;;;;;12.20;7.80;;;;;;;7.58;83.97;99416.77;79380;1301;3013586;-63
2024/03/28 00:56:18;;;;;;;12.00;7.90;;;;;;;7.62;82.53;99414.27;79859;1298;3011417;-59
2024/03/28 00:58:46;;;;;;;12.00;8.60;;;;;;;7.52;82.59;99423.98;78075;1301;3026078;-58
2024/03/28 01:01:13;;;;;;;13.00;8.20;;;;;;;7.21;83.56;99419.22;79315;1298;3013278;-63
2024/03/28 01:03:39;;;;;;;13.40;8.60;;;;;;;6.89;85.46;99421.55;79210;1297;3011869;-62
2024/03/28 01:06:07;;;;;;;14.50;8.90;;;;;;;6.71;86.85;99420.80;78149;1304;3052701;-62
2024/03/28 01:08:34;;;;;;;13.20;8.90;;;;;;;6.52;88.42;99421.31;79265;1298;3013482;-61
2024/03/28 01:11:01;;;;;;;12.50;7.30;;;;;;;6.41;89.69;99421.13;79794;1298;3011256;-60
2024/03/28 01:13:28;;;;;;;10.60;7.10;;;;;;;6.73;89.72;99427.36;78124;1298;3026046;-61
2024/03/28 01:15:57;;;;;;;11.00;7.30;;;;;;;7.06;87.88;99423.76;79111;1298;3013218;-59
2024/03/28 01:18:24;;;;;;;14.90;8.20;;;;;;;7.02;87.54;99421.32;79301;1301;3011584;-59
2024/03/28 01:20:52;;;;;;;14.20;8.00;;;;;;;6.89;88.12;99424.52;78092;1301;3052865;-60
2024/03/28 01:23:18;;;;;;;13.30;8.40;;;;;;;6.84;88.85;99427.55;79190;1301;3013701;-60
2024/03/28 01:25:45;;;;;;;13.10;8.80;;;;;;;6.75;89.68;99424.29;79151;1298;3011541;-61
2024/03/28 01:28:13;;;;;;;16.60;9.50;;;;;;;6.50;90.43;99432.89;77956;1301;3028228;-62
2024/03/28 01:30:40;;;;;;;18.20;8.00;;;;;;;6.32;91.98;99429.33;79257;1297;3020539;-58
2024/03/28 01:33:06;;;;;;;19.40;8.70;;;;;;;6.73;92.02;99430.50;79255;1298;3013041;-58
2024/03/28 01:35:36;;;;;;;17.30;8.90;;;;;;;7.23;88.87;99432.69;78052;1301;3028957;-61
2024/03/28 01:38:03;;;;;;;22.70;9.70;;;;;;;7.18;87.83;99429.29;79276;1297;3011924;-63
2024/03/28 01:40:33;;;;;;;20.80;9.80;;;;;;;6.94;88.26;99439.62;78658;1297;3011478;-61
2024/03/28 01:43:05;;;;;;;24.90;12.10;;;;;;;6.72;89.27;99438.72;79284;1298;3018614;-62
2024/03/28 01:45:33;;;;;;;22.10;11.50;;;;;;;6.46;90.56;99442.80;77962;1301;3054747;-61
2024/03/28 01:48:00;;;;;;;33.70;14.70;;;;;;;6.37;91.31;99447.04;79562;1304;3013139;-60
2024/03/28 01:50:30;;;;;;;34.50;12.50;;;;;;;6.20;92.44;99451.10;79165;1301;3011540;-62
2024/03/28 01:52:58;;;;;;;31.60;14.00;;;;;;;6.59;91.95;99450.59;78207;1300;3068281;-61
2024/03/28 01:55:24;;;;;;;28.00;14.50;;;;;;;6.73;90.47;99457.80;79382;1298;3019079;-62
2024/03/28 01:57:51;;;;;;;40.90;17.50;;;;;;;6.75;90.41;99456.35;79070;1301;3011717;-59
2024/03/28 02:00:19;;;;;;;39.20;17.40;;;;;;;6.56;90.95;99458.03;77914;1300;3026579;-62
2024/03/28 02:02:46;;;;;;;39.90;17.20;;;;;;;6.41;91.50;99449.12;79349;1301;3013134;-61
2024/03/28 02:05:13;;;;;;;37.20;18.20;;;;;;;6.21;92.22;99458.85;79190;1301;3011842;-62
2024/03/28 02:07:41;;;;;;;40.80;17.80;;;;;;;6.04;93.37;99456.96;77891;1304;3069161;-60
2024/03/28 02:10:08;;;;;;;32.80;14.90;;;;;;;5.91;93.84;99456.41;79098;1298;3013338;-62
2024/03/28 02:12:35;;;;;;;32.40;15.70;;;;;;;6.15;93.56;99456.50;79212;1303;3012860;-61
2024/03/28 02:15:04;;;;;;;32.10;14.90;;;;;;;6.36;91.90;99459.61;77831;1304;3027169;-60
2024/03/28 02:17:31;;;;;;;35.50;16.10;;;;;;;6.43;91.12;99458.25;79257;1301;3013818;-60
2024/03/28 02:19:57;;;;;;;37.60;17.80;;;;;;;6.29;91.21;99455.21;79196;1301;3011721;-61
2024/03/28 02:22:25;;;;;;;33.80;17.40;;;;;;;6.07;92.47;99457.16;77997;1298;3067771;-61
2024/03/28 02:24:52;;;;;;;36.00;17.90;;;;;;;5.93;93.03;99456.52;79131;1298;3018952;-63
2024/03/28 02:27:19;;;;;;;33.40;18.10;;;;;;;5.84;93.81;99458.13;78955;1304;3011676;-62
2024/03/28 02:29:47;;;;;;;41.80;15.10;;;;;;;5.69;94.46;99463.22;78038;1301;3028155;-61
2024/03/28 02:32:13;;;;;;;36.50;15.80;;;;;;;6.07;94.11;99463.95;79259;1301;3013500;-60
2024/03/28 02:34:40;;;;;;;32.50;16.10;;;;;;;6.38;92.26;99464.41;79128;1301;3011695;-59
2024/03/28 02:37:08;;;;;;;30.00;16.00;;;;;;;6.35;91.72;99469.95;78263;1298;3027962;-62
2024/03/28 02:39:34;;;;;;;40.20;18.00;;;;;;;5.97;92.83;99473.04;79119;1298;3013480;-60
2024/03/28 02:42:01;;;;;;;42.90;19.30;;;;;;;5.66;95.28;99474.47;79403;1301;3011928;-63
2024/03/28 02:44:29;;;;;;;42.10;19.70;;;;;;;5.60;96.12;99473.85;77887;1301;3028417;-58
2024/03/28 02:46:55;;;;;;;42.60;18.20;;;;;;;5.35;97.39;99472.23;79292;1301;3018583;-61
2024/03/28 02:49:22;;;;;;;33.20;15.30;;;;;;;5.41;99.28;99471.48;79225;1304;3011341;-62
2024/03/28 02:51:49;;;;;;;34.90;15.90;;;;;;;5.67;97.29;99470.45;78010;1301;3028048;-62
2024/03/28 02:54:16;;;;;;;26.10;13.60;;;;;;;5.54;97.91;99464.89;79114;1298;3018352;-63
2024/03/28 02:56:42;;;;;;;33.50;14.90;;;;;;;5.39;98.19;99461.65;79136;1298;3013075;-61
2024/03/28 02:59:10;;;;;;;37.90;15.60;;;;;;;5.25;99.40;99463.73;78297;1301;3026935;-62
2024/03/28 03:01:37;;;;;;;25.00;12.40;;;;;;;5.13;100.00;99462.48;79457;1301;3020501;-60
2024/03/28 03:04:04;;;;;;;27.50;13.20;;;;;;;5.59;99.62;99461.02;79544;1301;3013717;-60
2024/03/28 03:06:32;;;;;;;23.20;13.30;;;;;;;6.01;97.56;99457.41;78085;1298;3026381;-62
2024/03/28 03:08:58;;;;;;;25.50;13.00;;;;;;;5.90;96.68;99461.67;79069;1298;3019314;-60
2024/03/28 03:11:25;;;;;;;32.00;15.40;;;;;;;5.90;96.86;99457.19;79253;1298;3012998;-61
2024/03/28 03:13:53;;;;;;;35.10;17.00;;;;;;;5.57;97.96;99456.42;78005;1301;3025573;-58
2024/03/28 03:16:19;;;;;;;34.90;15.80;;;;;;;5.56;99.29;99453.49;79551;1300;3018664;-61
2024/03/28 03:18:49;;;;;;;23.90;11.60;;;;;;;5.77;99.43;99455.95;79276;1301;3011566;-63
2024/03/28 03:21:18;;;;;;;29.40;13.70;;;;;;;6.30;97.75;99456.56;77996;1298;3069065;-61
2024/03/28 03:23:51;;;;;;;35.70;15.20;;;;;;;6.89;94.54;99456.20;79148;1298;3014734;-61
2024/03/28 03:26:20;;;;;;;35.80;16.10;;;;;;;6.92;92.41;99461.63;77988;1301;3048544;-64
2024/03/28 03:34:35;;;;;;;32.70;14.70;;;;;;;6.25;93.42;99454.51;78071;1301;3054013;-61
2024/03/28 03:37:07;;;;;;;26.20;12.70;;;;;;;6.01;94.22;99451.36;77993;1301;3069288;-61
2024/03/28 03:39:33;;;;;;;23.50;10.60;;;;;;;5.87;94.97;99448.95;79219;1297;3011754;-63
2024/03/28 03:42:01;;;;;;;22.20;11.10;;;;;;;6.35;93.88;99449.39;77886;1301;3027814;-62
2024/03/28 03:44:28;;;;;;;25.70;12.10;;;;;;;6.97;91.86;99450.44;79350;1298;3018599;-62
2024/03/28 03:46:54;;;;;;;21.80;12.10;;;;;;;7.02;90.25;99449.20;79595;1299;3012798;-60
2024/03/28 03:49:22;;;;;;;23.90;12.20;;;;;;;6.96;90.04;99456.06;78198;1301;3026225;-63
2024/03/28 03:51:49;;;;;;;25.40;12.20;;;;;;;6.78;90.30;99455.34;79739;1297;3013096;-61
2024/03/28 03:54:15;;;;;;;24.40;12.80;;;;;;;6.59;90.31;99450.93;79172;1301;3011733;-59
2024/03/28 03:56:43;;;;;;;22.00;10.90;;;;;;;6.38;90.88;99453.45;78703;1298;3026077;-62
2024/03/28 03:59:10;;;;;;;18.40;8.90;;;;;;;5.85;91.93;99451.48;79349;1297;3013469;-62
2024/03/28 04:01:37;;;;;;;20.90;10.80;;;;;;;5.99;92.53;99444.63;79261;1298;3012033;-60
2024/03/28 04:04:05;;;;;;;23.30;10.30;;;;;;;6.32;91.11;99446.39;78288;1301;3026576;-62
2024/03/28 04:06:32;;;;;;;23.10;11.90;;;;;;;6.46;89.82;99442.98;79318;1301;3013665;-61
2024/03/28 04:08:58;;;;;;;24.80;11.90;;;;;;;6.42;89.81;99448.02;79321;1301;3011848;-62
2024/03/28 04:11:26;;;;;;;28.50;13.20;;;;;;;6.30;90.19;99451.86;77960;1298;3025862;-61
2024/03/28 04:13:52;;;;;;;28.60;13.40;;;;;;;6.09;90.62;99464.92;79696;1297;3013081;-61
2024/03/28 04:16:19;;;;;;;31.30;14.80;;;;;;;5.91;91.34;99460.95;79342;1298;3013245;-62
2024/03/28 04:18:47;;;;;;;26.80;11.70;;;;;;;5.83;92.00;99460.23;78161;1301;3028510;-60
2024/03/28 04:21:14;;;;;;;36.10;15.00;;;;;;;6.32;91.37;99458.21;79123;1301;3013774;-60
2024/03/28 04:23:41;;;;;;;35.40;15.50;;;;;;;6.69;88.87;99459.55;79231;1301;3011742;-64
2024/03/28 04:26:09;;;;;;;33.60;17.00;;;;;;;6.91;87.96;99458.02;78050;1301;3056378;-61
2024/03/28 04:28:36;;;;;;;39.40;18.90;;;;;;;6.58;88.23;99461.08;79131;1298;3019122;-60
2024/03/28 04:31:02;;;;;;;40.90;19.80;;;;;;;6.40;89.03;99457.86;79369;1298;3012965;-63
2024/03/28 04:33:30;;;;;;;48.50;20.20;;;;;;;6.18;89.79;99465.59;78122;1301;3025307;-61
2024/03/28 04:35:57;;;;;;;46.80;21.40;;;;;;;5.95;91.14;99464.95;79186;1301;3013099;-61
2024/03/28 04:38:25;;;;;;;39.20;15.80;;;;;;;5.75;91.99;99468.55;79282;1301;3013592;-60
2024/03/28 04:40:53;;;;;;;39.40;16.30;;;;;;;6.22;91.64;99463.81;78128;1298;3056561;-60
2024/03/28 04:43:20;;;;;;;39.00;18.90;;;;;;;6.50;89.09;99460.73;79213;1298;3013488;-62
2024/03/28 04:45:46;;;;;;;44.70;20.50;;;;;;;6.18;89.71;99458.27;79322;1298;3013954;-63
2024/03/28 04:48:14;;;;;;;46.80;21.40;;;;;;;6.58;88.99;99453.62;78083;1301;3028858;-62
2024/03/28 04:50:41;;;;;;;50.20;22.70;;;;;;;6.52;89.00;99454.04;79300;1301;3013207;-61
2024/03/28 04:53:07;;;;;;;52.60;24.00;;;;;;;6.38;89.19;99451.48;79298;1297;3011682;-60
2024/03/28 04:55:35;;;;;;;52.90;24.10;;;;;;;6.17;89.93;99454.48;77925;1298;3026088;-61
2024/03/28 04:58:02;;;;;;;36.30;16.00;;;;;;;6.13;90.68;99446.14;79389;1298;3013693;-63
2024/03/28 05:00:29;;;;;;;42.80;18.00;;;;;;;6.67;89.58;99444.70;79155;1301;3012985;-60
2024/03/28 05:02:57;;;;;;;48.70;20.80;;;;;;;6.92;87.63;99444.94;78005;1301;3027619;-63
2024/03/28 05:05:23;;;;;;;38.40;21.10;;;;;;;7.02;87.37;99441.38;79179;1301;3013722;-61
2024/03/28 05:07:50;;;;;;;37.10;19.00;;;;;;;7.03;86.84;99441.63;79230;1301;3013007;-63
2024/03/28 05:10:18;;;;;;;35.70;17.80;;;;;;;6.89;87.11;99443.31;78007;1299;3028522;-61
2024/03/28 05:12:44;;;;;;;29.60;15.60;;;;;;;6.62;87.95;99437.61;79205;1297;3019028;-65
2024/03/28 05:15:11;;;;;;;31.10;15.00;;;;;;;6.34;89.26;99432.52;79439;1297;3011917;-60
2024/03/28 05:17:39;;;;;;;28.90;16.10;;;;;;;6.42;89.14;99435.69;77899;1301;3027627;-61
2024/03/28 05:20:06;;;;;;;21.40;9.90;;;;;;;6.36;90.47;99432.27;79317;1301;3013590;-62
2024/03/28 05:22:33;;;;;;;13.30;7.20;;;;;;;6.91;89.52;99439.95;79093;1301;3013219;-60
2024/03/28 05:25:01;;;;;;;11.90;7.20;;;;;;;7.32;86.19;99439.61;78067;1301;3057005;-60
2024/03/28 05:27:28;;;;;;;14.50;8.20;;;;;;;7.43;84.75;99444.64;79298;1298;3013603;-60
2024/03/28 05:29:54;;;;;;;14.90;8.40;;;;;;;7.47;84.59;99442.90;79148;1298;3011730;-59
2024/03/28 05:32:22;;;;;;;12.10;7.40;;;;;;;7.39;84.84;99441.35;78002;1301;3026640;-63
2024/03/28 05:34:49;;;;;;;13.80;8.70;;;;;;;7.21;85.37;99446.22;79399;1297;3013484;-64
2024/03/28 05:37:15;;;;;;;14.10;8.40;;;;;;;7.15;85.33;99440.75;79278;1301;3011676;-63
2024/03/28 05:39:43;;;;;;;13.70;9.00;;;;;;;6.96;86.12;99445.84;78273;1297;3026407;-59
2024/03/28 05:42:10;;;;;;;18.00;9.60;;;;;;;6.88;87.17;99448.59;79763;1298;3012861;-63
2024/03/28 05:44:36;;;;;;;13.80;7.10;;;;;;;6.83;87.70;99449.00;79357;1298;3011454;-64
2024/03/28 05:47:04;;;;;;;14.60;8.40;;;;;;;7.12;86.99;99445.93;78148;1301;3028521;-60
2024/03/28 05:49:31;;;;;;;15.20;9.90;;;;;;;7.56;85.19;99446.12;79324;1301;3013531;-62
2024/03/28 05:51:58;;;;;;;17.00;11.10;;;;;;;7.70;83.79;99440.73;79128;1301;3011651;-63
2024/03/28 05:54:26;;;;;;;18.60;11.10;;;;;;;7.60;83.98;99440.20;78350;1301;3027717;-64
2024/03/28 05:56:52;;;;;;;19.90;12.40;;;;;;;7.51;84.60;99439.04;79458;1297;3013448;-59
2024/03/28 05:59:19;;;;;;;20.50;12.50;;;;;;;7.40;84.80;99442.00;79323;1297;3011608;-62
2024/03/28 06:01:47;;;;;;;19.90;12.60;;;;;;;7.36;85.36;99441.32;77957;1301;3026202;-63
2024/03/28 06:04:13;;;;;;;18.00;11.30;;;;;;;7.29;86.09;99446.73;79266;1298;3019221;-61
2024/03/28 06:06:40;;;;;;;12.80;6.80;;;;;;;7.25;86.33;99445.16;79391;1297;3011510;-63
2024/03/28 06:09:09;;;;;;;14.70;7.40;;;;;;;7.86;84.96;99440.31;77852;1301;3028633;-62
2024/03/28 06:11:35;;;;;;;18.90;9.40;;;;;;;8.29;82.41;99439.72;79365;1297;3013905;-61
2024/03/28 06:14:09;;;;;;;19.80;10.40;;;;;;;8.34;81.62;99434.92;79165;1301;3011496;-66
2024/03/28 06:16:37;;;;;;;17.20;11.30;;;;;;;8.34;81.52;99440.14;78264;1298;3052668;-60
2024/03/28 06:19:04;;;;;;;13.80;9.90;;;;;;;8.15;81.61;99442.66;79273;1298;3013436;-62
2024/03/28 06:21:31;;;;;;;19.10;11.00;;;;;;;8.03;81.96;99446.09;79350;1298;3012055;-64
2024/03/28 06:23:59;;;;;;;12.70;9.40;;;;;;;7.86;82.67;99447.11;80612;1297;3057110;-62
2024/03/28 06:26:25;;;;;;;13.20;8.50;;;;;;;7.76;83.10;99451.92;81896;1298;3013154;-61
2024/03/28 06:28:53;;;;;;;14.30;8.70;;;;;;;7.69;83.88;99456.46;81839;1298;3011035;-63
2024/03/28 06:31:22;;;;;;;14.80;7.70;;;;;;;7.79;83.61;99450.23;80585;1301;3051093;-62
2024/03/28 06:33:49;;;;;;;10.00;4.60;;;;;;;7.95;83.62;99447.16;81866;1298;3012792;-61
2024/03/28 06:36:16;;;;;;;11.90;5.00;;;;;;;8.68;81.89;99439.08;81868;1297;3011487;-62
2024/03/28 06:38:44;;;;;;;9.90;5.50;;;;;;;9.13;79.21;99434.41;80617;1298;3055332;-60
2024/03/28 06:41:10;;;;;;;9.00;4.70;;;;;;;9.39;77.84;99438.19;81843;1298;3018086;-62
2024/03/28 06:43:37;;;;;;;10.50;4.00;;;;;;;9.31;77.80;99432.00;81836;1297;3011820;-60
2024/03/28 06:46:05;;;;;;;11.00;4.20;;;;;;;9.22;77.20;99437.95;80611;1297;3026090;-62
2024/03/28 06:48:32;;;;;;;7.60;4.90;;;;;;;8.96;76.98;99434.84;81876;1298;3013158;-61
2024/03/28 06:50:59;;;;;;;10.20;4.60;;;;;;;8.79;77.57;99435.54;81863;1297;3011257;-63
2024/03/28 06:53:26;;;;;;;7.90;4.40;;;;;;;8.81;77.80;99430.20;80579;1297;3055790;-62
2024/03/28 06:55:53;;;;;;;8.90;4.20;;;;;;;8.70;78.97;99430.08;81865;1297;3018315;-61
2024/03/28 06:58:19;;;;;;;8.60;4.10;;;;;;;8.73;78.73;99432.02;81851;1297;3011162;-63
2024/03/28 07:00:47;;;;;;;6.80;4.00;;;;;;;8.64;79.08;99438.08;80569;1301;3026257;-65
2024/03/28 07:03:14;;;;;;;5.50;3.40;;;;;;;8.63;79.00;99438.48;81853;1297;3012566;-61
2024/03/28 07:05:40;;;;;;;9.40;3.90;;;;;;;8.47;79.42;99436.55;81845;1298;3011345;-61
2024/03/28 07:08:08;;;;;;;7.00;4.20;;;;;;;8.42;79.26;99448.80;80619;1298;3025754;-61
2024/03/28 07:10:35;;;;;;;8.40;3.20;;;;;;;8.16;79.08;99457.83;81830;1297;3012928;-61
2024/03/28 07:13:01;;;;;;;14.60;3.70;;;;;;;8.12;80.11;99445.48;81855;1297;3011190;-65
2024/03/28 07:15:29;;;;;;;5.60;3.50;;;;;;;8.33;79.34;99447.52;80616;1298;3027341;-61
2024/03/28 07:17:56;;;;;;;9.80;3.60;;;;;;;8.40;79.04;99439.66;81894;1297;3012398;-60
2024/03/28 07:20:22;;;;;;;7.50;3.30;;;;;;;8.41;78.97;99437.70;81817;1298;3011339;-64
2024/03/28 07:22:50;;;;;;;8.80;3.00;;;;;;;8.51;79.22;99434.42;80582;1297;3025785;-66
2024/03/28 07:25:17;;;;;;;4.50;2.40;;;;;;;8.58;78.63;99437.54;81853;1301;3012745;-63
2024/03/28 07:27:44;;;;;;;10.20;2.50;;;;;;;9.21;76.09;99431.67;81812;1297;3011272;-66
2024/03/28 07:30:12;;;;;;;5.40;2.40;;;;;;;9.54;72.93;99437.54;80603;1299;3051721;-70
2024/03/28 07:32:39;;;;;;;3.80;2.30;;;;;;;9.46;72.67;99433.95;81882;1297;3013170;-64
2024/03/28 07:35:06;;;;;;;6.40;3.30;;;;;;;9.43;73.42;99430.69;81835;1297;3011304;-68
2024/03/28 07:37:34;;;;;;;8.20;2.60;;;;;;;9.57;72.95;99424.25;80588;1297;3025843;-62
2024/03/28 07:40:01;;;;;;;8.50;2.70;;;;;;;9.60;71.70;99427.11;81884;1297;3012638;-64
2024/03/28 07:42:27;;;;;;;5.90;3.10;;;;;;;9.56;70.33;99423.27;81843;1297;3011435;-63
2024/03/28 07:44:55;;;;;;;7.70;2.70;;;;;;;9.52;70.25;99419.69;80607;1298;3027731;-65
2024/03/28 07:47:22;;;;;;;7.00;2.50;;;;;;;9.57;69.04;99419.02;81871;1297;3012673;-66
2024/03/28 07:49:48;;;;;;;5.90;2.40;;;;;;;9.43;68.94;99418.58;81839;1298;3011287;-65
2024/03/28 07:52:16;;;;;;;6.50;2.80;;;;;;;9.41;69.57;99414.70;80618;1298;3026434;-65
2024/03/28 07:54:46;;;;;;;4.80;2.60;;;;;;;9.51;70.17;99406.80;81824;1297;3013275;-65
2024/03/28 07:57:15;;;;;;;4.20;2.40;;;;;;;9.64;68.92;99403.09;81312;1298;3011475;-64
2024/03/28 07:59:41;;;;;;;5.10;2.60;;;;;;;9.71;68.24;99405.63;81845;1297;3012517;-60
2024/03/28 08:02:08;;;;;;;6.10;2.20;;;;;;;9.66;68.52;99397.04;81880;1297;3011476;-61
2024/03/28 08:04:36;;;;;;;5.40;2.10;;;;;;;9.65;67.32;99391.10;80608;1297;3027146;-65
2024/03/28 08:07:02;;;;;;;4.30;2.40;;;;;;;9.77;65.50;99393.88;81902;1298;3012738;-62
2024/03/28 08:09:29;;;;;;;8.70;2.50;;;;;;;9.92;64.37;99382.36;81890;1297;3011392;-65
2024/03/28 08:11:57;;;;;;;4.20;2.20;;;;;;;9.98;64.54;99379.92;80637;1298;3026112;-62
2024/03/28 08:14:24;;;;;;;7.00;2.40;;;;;;;9.96;64.24;99372.67;81897;1298;3012657;-62
2024/03/28 08:16:50;;;;;;;5.80;2.40;;;;;;;10.17;63.57;99373.34;81863;1298;3011176;-66
2024/03/28 08:19:18;;;;;;;5.90;2.50;;;;;;;10.19;62.88;99371.13;80617;1297;3026168;-61
2024/03/28 08:21:45;;;;;;;7.90;2.30;;;;;;;10.31;62.36;99371.11;81914;1297;3012353;-65
2024/03/28 08:24:11;;;;;;;5.60;2.30;;;;;;;10.39;60.35;99367.31;81889;1297;3011301;-60
2024/03/28 08:26:41;;;;;;;6.30;2.80;;;;;;;10.58;59.86;99366.30;80605;1297;3025968;-61
2024/03/28 08:29:10;;;;;;;5.80;2.60;;;;;;;10.83;59.70;99353.02;81848;1297;3013212;-61
2024/03/28 08:31:38;;;;;;;8.40;2.40;;;;;;;11.07;59.39;99343.98;80624;1298;3026832;-61
2024/03/28 08:34:05;;;;;;;8.00;2.70;;;;;;;11.19;59.00;99335.13;81907;1297;3012398;-65
2024/03/28 08:36:33;;;;;;;6.20;2.60;;;;;;;11.34;59.03;99343.26;81910;1297;3011673;-65
2024/03/28 08:39:03;;;;;;;8.00;2.10;;;;;;;11.33;57.94;99335.66;80642;1297;3055787;-66
2024/03/28 08:41:30;;;;;;;6.50;2.10;;;;;;;11.26;56.52;99324.17;81885;1298;3011327;-60
2024/03/28 08:43:56;;;;;;;6.50;2.30;;;;;;;11.37;55.87;99323.42;81892;1297;3011393;-65
2024/03/28 08:46:24;;;;;;;5.10;1.80;;;;;;;11.39;55.10;99320.13;80663;1297;3051157;-64
2024/03/28 08:48:51;;;;;;;4.10;1.90;;;;;;;11.33;55.81;99318.29;81910;1297;3012897;-64
2024/03/28 08:51:21;;;;;;;3.50;1.80;;;;;;;11.48;56.58;99319.74;81852;1297;3011376;-64
2024/03/28 08:53:49;;;;;;;9.70;2.00;;;;;;;11.61;56.27;99322.75;80611;1298;3056704;-64
2024/03/28 08:56:16;;;;;;;13.50;1.70;;;;;;;11.65;55.84;99309.36;81899;1297;3018501;-64
2024/03/28 08:58:43;;;;;;;7.70;1.50;;;;;;;11.74;53.98;99305.38;81878;1297;3011482;-65
2024/03/28 09:01:13;;;;;;;10.50;1.50;;;;;;;11.76;53.91;99301.74;80633;1298;3050756;-64
2024/03/28 09:03:39;;;;;;;3.80;1.50;;;;;;;11.98;53.27;99298.88;81899;1297;3012521;-64
2024/03/28 09:06:09;;;;;;;4.20;1.60;;;;;;;12.03;52.95;99306.02;81893;1297;3011746;-68
2024/03/28 09:08:37;;;;;;;3.80;1.70;;;;;;;12.10;53.42;99300.66;80630;1298;3056573;-66
2024/03/28 09:11:08;;;;;;;10.70;1.70;;;;;;;12.08;52.63;99302.15;81920;1297;3012390;-67
2024/03/28 09:13:36;;;;;;;6.90;1.50;;;;;;;12.18;52.77;99292.20;80637;1297;3049439;-65
2024/03/28 09:16:03;;;;;;;4.80;1.60;;;;;;;12.43;52.53;99282.75;81913;1297;3012366;-65
2024/03/28 09:18:31;;;;;;;2.20;1.40;;;;;;;12.52;53.08;99277.85;81856;1298;3011296;-69
2024/03/28 09:21:08;;;;;;;3.70;1.20;;;;;;;12.68;52.90;99280.61;80588;1298;3052533;-62
2024/03/28 09:23:35;;;;;;;5.30;1.70;;;;;;;12.69;53.03;99276.83;80583;1298;3057423;-63
2024/03/28 09:26:02;;;;;;;4.90;1.30;;;;;;;12.95;53.17;99264.39;81872;1298;3013904;-67
2024/03/28 09:28:30;;;;;;;4.20;1.40;;;;;;;13.11;52.94;99269.21;81830;1297;3011413;-67
2024/03/28 09:30:59;;;;;;;3.30;1.20;;;;;;;13.11;51.60;99258.29;80569;1298;3052667;-66
2024/03/28 09:33:26;;;;;;;4.60;1.30;;;;;;;13.07;51.01;99265.45;81843;1299;3011216;-67
2024/03/28 09:35:52;;;;;;;1.60;1.00;;;;;;;13.14;51.68;99265.46;81848;1298;3011518;-65
2024/03/28 09:38:20;;;;;;;7.10;1.10;;;;;;;13.43;52.00;99252.58;80617;1298;3056600;-69
2024/03/28 09:40:51;;;;;;;5.90;1.40;;;;;;;13.55;52.26;99251.52;81883;1297;3012642;-65
2024/03/28 09:43:19;;;;;;;3.60;1.00;;;;;;;13.81;50.81;99251.98;80582;1297;3049282;-65
2024/03/28 09:45:46;;;;;;;5.50;1.40;;;;;;;13.68;49.03;99251.95;81884;1298;3012973;-63
2024/03/28 09:48:15;;;;;;;4.20;1.30;;;;;;;13.70;48.77;99253.20;81829;1298;3011411;-63
2024/03/28 09:50:43;;;;;;;6.10;1.30;;;;;;;13.62;49.05;99259.45;80610;1297;3051943;-66
2024/03/28 09:53:10;;;;;;;2.30;1.10;;;;;;;13.61;48.74;99245.26;81878;1297;3018209;-61
2024/03/28 09:55:37;;;;;;;9.40;1.10;;;;;;;13.98;48.65;99236.60;81840;1297;3011646;-61
2024/03/28 09:58:05;;;;;;;2.80;1.20;;;;;;;13.94;48.49;99228.48;80545;1297;3026202;-61
2024/03/28 10:00:32;;;;;;;4.20;0.80;;;;;;;13.87;47.50;99235.33;81850;1301;3011266;-59
2024/03/28 10:03:05;;;;;;;4.00;1.00;;;;;;;13.83;47.80;99231.96;81803;1298;3011384;-63
2024/03/28 10:05:33;;;;;;;8.10;1.80;;;;;;;14.04;47.79;99220.44;80543;1298;3052167;-61
2024/03/28 10:08:02;;;;;;;5.40;1.70;;;;;;;14.18;47.86;99224.80;81835;1298;3011644;-62
2024/03/28 10:10:31;;;;;;;3.80;1.70;;;;;;;14.27;47.19;99215.43;81316;1297;3011262;-61
2024/03/28 10:13:04;;;;;;;6.30;1.00;;;;;;;14.46;46.48;99223.27;81810;1298;3012802;-63
2024/03/28 10:15:35;;;;;;;3.20;1.40;;;;;;;14.51;45.40;99221.66;80639;1297;3051779;-63
2024/03/28 10:18:12;;;;;;;8.20;1.40;;;;;;;14.77;44.56;99198.28;81871;1298;3012833;-62
2024/03/28 10:20:40;;;;;;;11.50;2.00;;;;;;;14.88;43.19;99211.98;80583;1297;3068527;-64
2024/03/28 10:23:07;;;;;;;5.30;1.40;;;;;;;14.76;41.93;99211.36;81862;1298;3011309;-65
2024/03/28 10:25:34;;;;;;;17.70;3.50;;;;;;;14.75;41.99;99208.96;81850;1299;3011352;-61
2024/03/28 10:28:02;;;;;;;8.90;1.60;;;;;;;15.00;41.78;99205.35;80463;1298;3053007;-62
2024/03/28 10:30:29;;;;;;;4.30;1.20;;;;;;;15.18;41.96;99205.08;81873;1298;3011552;-63
2024/03/28 10:32:59;;;;;;;4.80;0.90;;;;;;;15.23;40.95;99208.39;81872;1297;3011339;-63
2024/03/28 10:35:27;;;;;;;7.50;1.30;;;;;;;14.88;41.50;99205.49;80654;1298;3068450;-61
2024/03/28 10:38:04;;;;;;;6.90;0.90;;;;;;;14.86;41.89;99209.34;81883;1298;3018745;-62
2024/03/28 10:40:33;;;;;;;1.50;0.90;;;;;;;14.96;41.39;99202.67;80607;1298;3048654;-63
2024/03/28 10:43:00;;;;;;;4.20;0.90;;;;;;;14.95;41.70;99199.38;81884;1298;3012554;-64
2024/03/28 10:45:30;;;;;;;4.70;1.00;;;;;;;15.08;41.75;99190.20;81859;1298;3011387;-61
2024/03/28 10:48:03;;;;;;;5.10;1.10;;;;;;;15.39;41.23;99187.95;80589;1299;3052304;-62
2024/03/28 10:50:39;;;;;;;1.00;0.70;;;;;;;15.52;38.59;99201.49;81813;1301;3011302;-62
2024/03/28 10:53:08;;;;;;;8.20;1.20;;;;;;;15.35;38.85;99194.65;80577;1298;3052898;-65
2024/03/28 10:55:36;;;;;;;3.70;0.80;;;;;;;15.54;38.96;99190.79;81830;1299;3013329;-61
2024/03/28 10:58:07;;;;;;;2.70;1.00;;;;;;;15.74;37.99;99192.24;81833;1297;3011141;-62
2024/03/28 11:00:35;;;;;;;2.50;1.00;;;;;;;15.97;36.97;99198.06;80557;1298;3048488;-60
2024/03/28 11:03:02;;;;;;;4.20;1.10;;;;;;;16.03;36.64;99174.89;81730;1304;3018008;-63
2024/03/28 11:05:31;;;;;;;5.10;1.10;;;;;;;16.19;36.42;99178.84;81785;1302;3011221;-62
2024/03/28 11:07:59;;;;;;;10.70;1.20;;;;;;;16.37;35.85;99173.11;80625;1297;3052350;-59
2024/03/28 11:10:26;;;;;;;3.60;1.00;;;;;;;16.46;35.72;99166.86;81867;1298;3012843;-61
2024/03/28 11:12:53;;;;;;;4.40;1.00;;;;;;;16.39;35.80;99172.23;81834;1298;3011308;-61
2024/03/28 11:15:22;;;;;;;10.50;1.10;;;;;;;16.27;36.04;99172.78;80603;1298;3026437;-62
2024/03/28 11:17:48;;;;;;;6.30;1.40;;;;;;;16.49;35.57;99170.46;81876;1298;3012675;-61
2024/03/28 11:20:17;;;;;;;3.80;0.90;;;;;;;16.61;34.51;99171.15;81780;1300;3012827;-63
2024/03/28 11:22:45;;;;;;;3.90;1.00;;;;;;;16.60;34.41;99164.91;80572;1297;3051627;-61